Time;durP1;ratioP1;P1;durP2;ratioP2;P2;SDS_P1;SDS_P2;PMS_P1;PMS_P2;Temp;Humidity;BMP_temperature;BMP_pressure;BME280_temperature;BME280_humidity;BME280_pressure;Samples;Min_cycle;Max_cycle;Signal;HPM_P1;HPM_P2
2023/09/28 00:01:37;;;;;;;13.43;11.27;;;25.90;53.60;;;;;;4998966;28;20451;-78
2023/09/28 00:04:06;;;;;;;16.00;10.43;;;25.90;53.50;;;;;;4996695;28;20440;-78
2023/09/28 00:06:34;;;;;;;12.37;10.00;;;25.90;53.60;;;;;;5000204;28;20419;-79
2023/09/28 00:09:03;;;;;;;11.90;10.37;;;25.90;53.50;;;;;;4998805;28;20456;-79
2023/09/28 00:11:31;;;;;;;12.70;11.20;;;25.90;54.10;;;;;;4993618;28;20469;-80
2023/09/28 00:14:00;;;;;;;13.37;11.00;;;25.90;53.50;;;;;;5003686;28;20456;-79
2023/09/28 00:16:27;;;;;;;12.90;10.93;;;25.90;53.50;;;;;;4994429;28;20449;-76
2023/09/28 00:18:55;;;;;;;12.23;10.60;;;25.80;53.60;;;;;;4985492;28;20455;-75
2023/09/28 00:21:22;;;;;;;15.93;10.67;;;25.90;53.70;;;;;;4992672;28;20526;-76
2023/09/28 00:23:52;;;;;;;11.70;10.47;;;25.90;53.60;;;;;;4992845;28;20469;-76
2023/09/28 00:26:20;;;;;;;11.40;10.13;;;25.90;53.50;;;;;;4982261;28;20425;-76
2023/09/28 00:28:50;;;;;;;12.77;10.33;;;25.90;53.60;;;;;;5001249;28;20476;-79
2023/09/28 00:31:17;;;;;;;11.13;10.03;;;25.80;53.50;;;;;;5007875;28;20469;-77
2023/09/28 00:33:45;;;;;;;11.50;9.83;;;25.80;53.60;;;;;;5004456;28;20443;-77
2023/09/28 00:36:12;;;;;;;11.13;9.73;;;25.80;53.50;;;;;;4999384;28;20545;-78
2023/09/28 00:38:40;;;;;;;13.10;10.90;;;25.80;53.60;;;;;;4995094;28;20452;-78
2023/09/28 00:41:07;;;;;;;13.60;11.47;;;25.80;53.60;;;;;;5008025;28;20535;-78
2023/09/28 00:43:36;;;;;;;10.60;9.50;;;25.80;53.70;;;;;;4995724;28;20527;-78
2023/09/28 00:46:04;;;;;;;10.80;9.70;;;25.80;53.70;;;;;;4995616;28;20776;-78
2023/09/28 00:48:33;;;;;;;10.90;9.77;;;25.80;53.70;;;;;;4995142;28;20452;-78
2023/09/28 00:51:00;;;;;;;12.57;10.07;;;25.80;53.80;;;;;;4996011;28;20496;-79
2023/09/28 00:53:28;;;;;;;12.60;10.30;;;25.80;53.80;;;;;;4995302;28;20445;-78
2023/09/28 00:55:56;;;;;;;10.90;9.80;;;25.80;53.80;;;;;;4997353;28;20446;-79
2023/09/28 00:58:24;;;;;;;11.33;10.13;;;25.70;53.80;;;;;;4993866;28;20436;-79
2023/09/28 01:00:51;;;;;;;12.70;9.63;;;25.70;53.80;;;;;;4999672;28;20511;-79
2023/09/28 01:03:20;;;;;;;11.17;9.93;;;25.70;53.80;;;;;;5001129;28;20461;-79
2023/09/28 01:05:48;;;;;;;12.97;10.57;;;25.70;53.80;;;;;;4997092;28;20416;-79
2023/09/28 01:08:18;;;;;;;12.00;10.70;;;25.70;53.80;;;;;;4997998;28;20500;-79
2023/09/28 01:10:47;;;;;;;11.37;10.03;;;25.70;53.80;;;;;;4998185;28;20467;-78
2023/09/28 01:13:17;;;;;;;12.10;9.97;;;25.70;53.90;;;;;;4998232;28;20440;-79
2023/09/28 01:15:46;;;;;;;12.60;10.53;;;25.70;53.80;;;;;;4996300;28;20466;-79
2023/09/28 01:18:15;;;;;;;11.23;10.03;;;25.70;53.70;;;;;;4982363;28;20431;-78
2023/09/28 01:20:44;;;;;;;10.93;9.70;;;25.70;53.80;;;;;;4994797;28;20502;-78
2023/09/28 01:23:13;;;;;;;11.07;9.67;;;25.70;53.60;;;;;;4976729;28;20970;-79
2023/09/28 01:25:40;;;;;;;10.73;9.70;;;25.70;53.80;;;;;;4995146;28;20427;-79
2023/09/28 01:28:10;;;;;;;10.70;9.20;;;25.70;53.80;;;;;;4995093;28;20522;-78
2023/09/28 01:30:37;;;;;;;9.87;8.87;;;25.70;54.40;;;;;;4998792;28;21010;-79
2023/09/28 01:33:07;;;;;;;10.30;9.30;;;25.70;53.80;;;;;;4999895;28;20464;-79
2023/09/28 01:35:35;;;;;;;12.17;8.60;;;25.70;53.80;;;;;;4985993;28;20413;-78
2023/09/28 01:38:09;;;;;;;10.53;9.53;;;25.70;53.80;;;;;;4982356;28;20520;-79
2023/09/28 01:40:38;;;;;;;10.53;9.43;;;25.70;53.70;;;;;;4998757;28;20540;-79
2023/09/28 01:43:06;;;;;;;9.77;8.87;;;25.70;53.80;;;;;;4996889;28;20488;-79
2023/09/28 01:45:33;;;;;;;10.30;9.30;;;25.70;53.80;;;;;;4998390;28;20954;-78
2023/09/28 01:48:02;;;;;;;14.13;9.23;;;25.70;53.80;;;;;;4999597;28;20536;-78
2023/09/28 01:50:30;;;;;;;9.93;8.93;;;25.70;53.90;;;;;;4998162;28;20461;-78
2023/09/28 01:52:58;;;;;;;10.87;9.40;;;25.60;53.80;;;;;;4987923;28;20456;-80
2023/09/28 01:55:25;;;;;;;9.90;8.90;;;25.70;53.80;;;;;;4987961;28;20445;-78
2023/09/28 01:57:54;;;;;;;11.10;9.57;;;25.70;53.80;;;;;;4995678;28;20468;-80
2023/09/28 02:00:24;;;;;;;10.10;9.10;;;25.70;53.70;;;;;;4986649;28;20461;-80
2023/09/28 02:02:54;;;;;;;10.07;9.07;;;25.60;53.80;;;;;;4994976;28;20436;-80
2023/09/28 02:05:21;;;;;;;9.83;8.60;;;25.60;53.70;;;;;;5006202;28;20443;-80
2023/09/28 02:07:49;;;;;;;10.10;9.10;;;25.70;53.70;;;;;;4996991;28;20465;-79
2023/09/28 02:10:16;;;;;;;9.50;8.53;;;25.70;53.80;;;;;;4997077;28;20429;-79
2023/09/28 02:12:44;;;;;;;9.00;8.10;;;25.60;53.70;;;;;;5005680;28;20447;-80
2023/09/28 02:15:14;;;;;;;9.00;8.10;;;25.70;53.80;;;;;;5001527;28;20471;-80
2023/09/28 02:17:43;;;;;;;9.13;8.27;;;25.70;53.60;;;;;;5000811;28;20409;-81
2023/09/28 02:20:14;;;;;;;9.93;8.87;;;25.70;53.70;;;;;;4987358;28;20469;-79
2023/09/28 02:22:44;;;;;;;9.03;8.10;;;25.60;53.60;;;;;;4985658;28;20430;-79
2023/09/28 02:25:15;;;;;;;11.10;8.30;;;25.60;53.70;;;;;;4999913;28;20444;-79
2023/09/28 02:27:43;;;;;;;8.67;7.77;;;25.60;53.80;;;;;;4997795;28;20467;-79
2023/09/28 02:30:13;;;;;;;8.63;7.90;;;25.60;53.70;;;;;;4996937;28;20486;-79
2023/09/28 02:32:43;;;;;;;8.73;7.83;;;25.60;53.70;;;;;;4995225;28;21005;-79
2023/09/28 02:35:11;;;;;;;8.77;7.87;;;25.60;53.80;;;;;;4998038;28;20456;-79
2023/09/28 02:37:40;;;;;;;9.03;8.13;;;25.60;53.80;;;;;;5001739;28;20424;-79
2023/09/28 02:40:09;;;;;;;8.57;7.67;;;25.60;53.50;;;;;;4992488;28;20442;-78
2023/09/28 02:42:36;;;;;;;8.10;7.30;;;25.60;53.80;;;;;;5000065;28;20471;-79
2023/09/28 02:45:11;;;;;;;8.60;7.80;;;25.60;53.70;;;;;;5001103;28;20901;-80
2023/09/28 02:47:41;;;;;;;8.07;7.27;;;25.60;53.80;;;;;;4999512;28;20465;-80
2023/09/28 02:50:09;;;;;;;7.57;6.87;;;25.60;53.70;;;;;;4980252;28;20437;-79
2023/09/28 02:52:38;;;;;;;7.67;6.97;;;25.50;53.80;;;;;;4996217;28;20477;-79
2023/09/28 02:55:07;;;;;;;8.60;7.80;;;25.60;53.80;;;;;;5000589;28;20420;-79
2023/09/28 02:57:36;;;;;;;8.17;7.27;;;25.60;53.70;;;;;;4990644;28;20438;-79
2023/09/28 03:00:12;;;;;;;7.90;7.10;;;25.50;53.80;;;;;;4997857;28;20520;-79
2023/09/28 03:02:41;;;;;;;8.20;7.40;;;25.50;53.80;;;;;;4981481;28;20441;-79
2023/09/28 03:05:09;;;;;;;7.77;7.10;;;25.50;53.90;;;;;;4978793;28;20533;-77
2023/09/28 03:07:39;;;;;;;7.73;6.93;;;25.50;53.80;;;;;;4981600;28;20450;-77
2023/09/28 03:10:10;;;;;;;7.67;6.97;;;25.60;53.90;;;;;;4975545;28;20464;-78
2023/09/28 03:12:36;;;;;;;7.20;6.50;;;25.60;53.80;;;;;;4990736;28;20456;-77
2023/09/28 03:15:10;;;;;;;7.43;6.73;;;25.50;53.70;;;;;;4994999;28;20452;-77
2023/09/28 03:17:36;;;;;;;7.80;7.10;;;25.50;53.80;;;;;;4994875;28;20437;-77
2023/09/28 03:20:09;;;;;;;7.23;6.53;;;25.50;53.80;;;;;;4984036;28;20440;-77
2023/09/28 03:22:36;;;;;;;7.37;6.67;;;25.50;53.70;;;;;;4970866;28;20394;-77
2023/09/28 03:25:11;;;;;;;6.60;5.97;;;25.50;53.80;;;;;;4993991;28;20564;-77
2023/09/28 03:27:39;;;;;;;7.03;6.33;;;25.50;54.30;;;;;;4994690;28;20453;-77
2023/09/28 03:30:10;;;;;;;8.07;7.30;;;25.50;53.80;;;;;;4983423;28;20493;-77
2023/09/28 03:32:38;;;;;;;6.90;5.83;;;25.50;53.80;;;;;;4975322;28;20517;-77
2023/09/28 03:35:09;;;;;;;7.20;6.50;;;25.50;53.80;;;;;;4975452;28;20413;-77
2023/09/28 03:37:37;;;;;;;7.37;6.67;;;25.50;53.80;;;;;;4974751;28;20836;-77
2023/09/28 03:40:10;;;;;;;7.70;6.67;;;25.50;53.80;;;;;;4984550;28;20479;-77
2023/09/28 03:42:39;;;;;;;6.20;5.70;;;25.50;53.80;;;;;;4994832;28;20396;-77
2023/09/28 03:45:08;;;;;;;7.20;6.57;;;25.50;53.70;;;;;;4994486;28;20462;-78
2023/09/28 03:47:37;;;;;;;6.53;6.00;;;25.50;53.90;;;;;;4992617;28;20478;-76
2023/09/28 03:50:06;;;;;;;6.40;5.80;;;25.40;53.90;;;;;;4992190;28;20432;-78
2023/09/28 03:52:37;;;;;;;6.30;5.80;;;25.50;53.90;;;;;;4989177;28;20491;-77
2023/09/28 03:55:05;;;;;;;6.57;5.80;;;25.40;53.90;;;;;;4993861;28;20430;-78
2023/09/28 03:57:33;;;;;;;5.70;5.30;;;25.40;53.80;;;;;;4994793;28;20470;-76
2023/09/28 04:00:01;;;;;;;6.07;5.57;;;25.40;53.80;;;;;;4986539;28;20464;-77
2023/09/28 04:02:29;;;;;;;6.13;5.60;;;25.40;53.90;;;;;;4982322;28;20445;-77
2023/09/28 04:04:57;;;;;;;6.10;5.60;;;25.40;53.90;;;;;;4999302;28;20488;-76
2023/09/28 04:07:25;;;;;;;6.93;6.07;;;25.40;53.80;;;;;;4986551;28;20814;-78
2023/09/28 04:09:54;;;;;;;6.50;5.90;;;25.40;53.70;;;;;;4994789;28;20489;-78
2023/09/28 04:12:22;;;;;;;5.70;5.30;;;25.40;53.80;;;;;;4986355;28;20459;-78
2023/09/28 04:14:50;;;;;;;6.30;5.80;;;25.40;53.80;;;;;;4997783;28;20472;-79
2023/09/28 04:17:18;;;;;;;6.37;5.77;;;25.40;53.90;;;;;;4982803;28;20443;-81
2023/09/28 04:19:46;;;;;;;6.27;5.70;;;25.40;53.80;;;;;;4999035;28;21051;-80
2023/09/28 04:22:14;;;;;;;6.20;5.70;;;25.40;53.80;;;;;;4997123;28;20453;-79
2023/09/28 04:24:42;;;;;;;5.50;5.10;;;25.40;53.90;;;;;;4998520;28;20524;-80
2023/09/28 04:27:12;;;;;;;5.87;5.47;;;25.40;54.00;;;;;;5004930;28;20438;-79
2023/09/28 04:29:41;;;;;;;6.23;5.70;;;25.40;53.80;;;;;;5003430;28;20436;-76
2023/09/28 04:32:08;;;;;;;5.83;5.33;;;25.40;53.70;;;;;;4993608;28;20416;-78
2023/09/28 04:34:37;;;;;;;6.03;5.53;;;25.40;53.80;;;;;;4994929;28;20437;-78
2023/09/28 04:37:05;;;;;;;5.83;5.33;;;25.40;53.80;;;;;;4989928;28;20455;-77
2023/09/28 04:39:34;;;;;;;7.07;5.43;;;25.40;53.90;;;;;;4995228;28;20444;-79
2023/09/28 04:42:05;;;;;;;5.77;5.37;;;25.40;53.90;;;;;;4996298;28;20791;-79
2023/09/28 04:44:34;;;;;;;6.27;5.63;;;25.40;54.00;;;;;;4977713;28;20426;-79
2023/09/28 04:47:02;;;;;;;6.10;4.87;;;25.30;53.90;;;;;;4990532;28;20436;-79
2023/09/28 04:49:30;;;;;;;6.17;5.40;;;25.30;53.90;;;;;;4995093;28;20453;-81
2023/09/28 04:51:59;;;;;;;5.70;5.20;;;25.30;54.00;;;;;;4995792;28;20440;-81
2023/09/28 04:54:27;;;;;;;5.80;5.30;;;25.30;54.00;;;;;;5004128;28;20438;-79
2023/09/28 04:56:55;;;;;;;5.70;5.30;;;25.30;54.00;;;;;;4990237;28;20442;-79
2023/09/28 04:59:24;;;;;;;5.27;4.87;;;25.30;54.00;;;;;;4993681;28;20438;-79
2023/09/28 05:01:54;;;;;;;6.93;5.10;;;25.20;54.00;;;;;;4985048;28;20457;-80
2023/09/28 05:04:22;;;;;;;5.00;4.63;;;25.30;53.90;;;;;;4998015;28;20926;-80
2023/09/28 05:06:50;;;;;;;6.00;5.40;;;25.20;54.00;;;;;;4998107;28;20508;-79
2023/09/28 05:09:18;;;;;;;5.33;4.93;;;25.20;54.10;;;;;;4997449;28;20476;-78
2023/09/28 05:11:46;;;;;;;5.20;4.90;;;25.20;54.10;;;;;;4994472;28;20476;-79
2023/09/28 05:14:14;;;;;;;5.57;5.00;;;25.20;54.00;;;;;;4987208;28;20477;-79
2023/09/28 05:16:42;;;;;;;5.53;5.10;;;25.20;54.10;;;;;;4985422;28;20423;-79
2023/09/28 05:19:12;;;;;;;5.33;4.93;;;25.20;54.00;;;;;;4991854;28;20492;-79
2023/09/28 05:21:40;;;;;;;5.30;4.90;;;25.20;54.10;;;;;;4999007;28;20437;-79
2023/09/28 05:24:08;;;;;;;5.43;4.93;;;25.20;54.10;;;;;;4993916;28;20507;-78
2023/09/28 05:26:37;;;;;;;5.17;4.77;;;25.10;54.20;;;;;;4994630;28;20503;-78
2023/09/28 05:29:05;;;;;;;5.20;4.80;;;25.20;54.20;;;;;;4985424;28;20446;-77
2023/09/28 05:31:33;;;;;;;7.40;4.83;;;25.20;54.10;;;;;;4981142;28;20552;-79
2023/09/28 05:34:02;;;;;;;4.67;4.37;;;25.10;54.20;;;;;;4996509;28;20408;-79
2023/09/28 05:36:31;;;;;;;5.40;5.00;;;25.10;54.20;;;;;;4984257;28;20430;-78
2023/09/28 05:38:59;;;;;;;5.30;4.90;;;25.10;54.20;;;;;;4993412;28;20437;-77
2023/09/28 05:41:27;;;;;;;5.87;5.37;;;25.00;54.90;;;;;;4996735;28;20897;-79
2023/09/28 05:43:54;;;;;;;6.93;5.27;;;25.10;54.30;;;;;;4989432;28;21010;-78
2023/09/28 05:46:23;;;;;;;5.13;4.73;;;25.10;54.30;;;;;;4995207;28;20473;-79
2023/09/28 05:48:51;;;;;;;5.60;5.20;;;25.10;54.90;;;;;;4995255;28;20433;-78
2023/09/28 05:51:19;;;;;;;5.60;5.10;;;25.10;54.10;;;;;;4986233;28;20482;-78
2023/09/28 05:53:50;;;;;;;5.60;5.20;;;25.00;54.40;;;;;;4979296;28;20532;-78
2023/09/28 05:56:18;;;;;;;6.07;5.50;;;25.10;54.40;;;;;;4993447;28;20423;-78
2023/09/28 05:58:46;;;;;;;8.40;5.77;;;25.00;54.80;;;;;;4995127;28;20443;-79
2023/09/28 06:01:17;;;;;;;4.87;4.47;;;25.00;54.40;;;;;;4993580;28;20480;-77
2023/09/28 06:03:45;;;;;;;5.57;5.07;;;25.00;54.30;;;;;;4987111;28;20904;-78
2023/09/28 06:06:14;;;;;;;5.40;5.00;;;25.00;54.40;;;;;;4995242;28;20531;-79
2023/09/28 06:08:43;;;;;;;5.60;5.10;;;25.00;54.30;;;;;;4996084;28;20437;-79
2023/09/28 06:11:15;;;;;;;6.10;4.60;;;25.00;54.40;;;;;;4977155;28;20490;-79
2023/09/28 06:13:44;;;;;;;5.23;4.83;;;25.00;54.30;;;;;;4988482;28;20448;-77
2023/09/28 06:16:31;;;;;;;5.20;4.80;;;25.00;54.40;;;;;;4992066;28;20415;-78
2023/09/28 06:18:59;;;;;;;5.57;5.00;;;25.10;54.40;;;;;;4985008;28;20436;-77
2023/09/28 06:21:27;;;;;;;5.10;4.70;;;25.00;54.20;;;;;;4992377;28;20461;-80
2023/09/28 06:23:54;;;;;;;5.30;4.90;;;25.10;54.40;;;;;;4984948;28;20476;-78
2023/09/28 06:26:24;;;;;;;5.40;5.00;;;25.10;54.30;;;;;;4997411;28;20473;-78
2023/09/28 06:29:08;;;;;;;5.73;5.23;;;25.10;54.30;;;;;;4979438;28;20397;-78
2023/09/28 06:31:36;;;;;;;5.10;4.70;;;25.10;54.20;;;;;;4996421;28;20448;-78
2023/09/28 06:34:06;;;;;;;5.77;4.80;;;25.20;54.40;;;;;;4988171;28;20441;-78
2023/09/28 06:36:33;;;;;;;5.20;4.70;;;25.10;54.20;;;;;;4990078;28;20412;-78
2023/09/28 06:39:04;;;;;;;4.90;4.50;;;25.10;54.30;;;;;;4978304;28;20473;-80
2023/09/28 06:41:34;;;;;;;4.83;4.43;;;25.20;54.30;;;;;;4985748;28;20441;-78
2023/09/28 06:44:02;;;;;;;5.40;4.90;;;25.20;54.20;;;;;;4994946;28;20462;-79
2023/09/28 06:46:30;;;;;;;4.83;4.43;;;25.20;54.30;;;;;;4998019;28;20474;-78
2023/09/28 06:48:59;;;;;;;5.47;4.83;;;25.20;54.20;;;;;;4997649;28;20453;-77
2023/09/28 06:51:27;;;;;;;5.80;5.20;;;25.20;54.20;;;;;;4995648;28;20468;-78
2023/09/28 06:53:55;;;;;;;5.00;4.50;;;25.30;54.30;;;;;;4996324;28;20536;-78
2023/09/28 06:56:26;;;;;;;5.70;5.20;;;25.30;54.10;;;;;;4986881;28;20461;-75
2023/09/28 06:58:57;;;;;;;4.70;4.40;;;25.30;53.90;;;;;;4975613;28;20480;-78
2023/09/28 07:01:38;;;;;;;4.43;4.13;;;25.30;54.00;;;;;;4995101;28;20478;-76
2023/09/28 07:04:06;;;;;;;5.40;4.80;;;25.30;54.10;;;;;;4996814;28;21020;-75
2023/09/28 07:06:38;;;;;;;4.63;4.33;;;25.30;54.00;;;;;;4996172;28;20483;-77
2023/09/28 07:09:07;;;;;;;5.10;4.70;;;25.40;54.20;;;;;;4996515;28;20440;-79
2023/09/28 07:11:36;;;;;;;5.83;4.97;;;25.40;54.10;;;;;;4995551;28;20491;-78
2023/09/28 07:14:20;;;;;;;5.40;4.87;;;25.40;54.00;;;;;;4996562;28;20424;-76
2023/09/28 07:16:50;;;;;;;4.97;4.53;;;25.40;53.90;;;;;;4984195;28;20439;-78
2023/09/28 07:19:22;;;;;;;4.90;4.50;;;25.40;54.00;;;;;;4993793;28;20960;-78
2023/09/28 07:21:51;;;;;;;5.30;4.80;;;25.40;54.00;;;;;;4982008;28;20487;-78
2023/09/28 07:24:19;;;;;;;4.97;4.03;;;25.50;54.20;;;;;;4984923;28;20430;-78
2023/09/28 07:29:38;;;;;;;4.90;4.60;;;25.50;53.90;;;;;;4979038;28;20460;-77
2023/09/28 07:32:08;;;;;;;5.00;4.50;;;25.60;54.00;;;;;;4997425;28;20445;-79
2023/09/28 07:34:36;;;;;;;5.03;4.53;;;25.60;53.80;;;;;;4986724;28;20441;-78
2023/09/28 07:37:05;;;;;;;6.17;5.07;;;25.60;53.90;;;;;;4995467;28;20445;-78
2023/09/28 07:39:50;;;;;;;5.00;4.60;;;25.60;53.90;;;;;;4975146;28;20456;-78
2023/09/28 07:42:19;;;;;;;4.30;4.00;;;25.70;53.80;;;;;;4992994;28;20449;-77
2023/09/28 07:44:51;;;;;;;5.60;4.60;;;25.70;53.80;;;;;;4995329;28;20922;-78
2023/09/28 07:47:21;;;;;;;5.30;4.90;;;25.70;53.70;;;;;;4993116;28;20454;-79
2023/09/28 07:49:49;;;;;;;5.23;4.73;;;25.70;53.70;;;;;;4981252;28;20476;-79
2023/09/28 07:52:21;;;;;;;5.20;4.70;;;25.70;53.80;;;;;;4986700;28;20821;-79
2023/09/28 07:54:50;;;;;;;4.73;4.40;;;25.70;53.90;;;;;;4988257;28;20513;-76
2023/09/28 07:57:19;;;;;;;4.80;4.40;;;25.80;54.10;;;;;;4994212;28;20416;-77
2023/09/28 07:59:50;;;;;;;14.53;6.43;;;25.90;54.00;;;;;;4994721;28;20460;-77
2023/09/28 08:02:18;;;;;;;11.90;6.00;;;24.60;59.70;;;;;;4987613;28;20431;-75
2023/09/28 08:04:48;;;;;;;17.03;6.70;;;24.10;62.10;;;;;;4994408;28;20431;-77
2023/09/28 08:07:17;;;;;;;10.53;6.03;;;23.90;63.90;;;;;;4994253;28;20450;-77
2023/09/28 08:09:47;;;;;;;12.20;6.30;;;23.70;65.30;;;;;;4994344;28;20905;-76
2023/09/28 08:12:15;;;;;;;13.47;5.97;;;23.00;67.30;;;;;;4993984;28;20467;-78
2023/09/28 08:14:45;;;;;;;18.90;6.43;;;22.70;69.90;;;;;;4994082;28;20488;-77
2023/09/28 08:17:15;;;;;;;17.53;6.47;;;23.00;69.70;;;;;;4993769;28;21016;-75
2023/09/28 08:19:45;;;;;;;13.50;5.50;;;23.30;69.40;;;;;;4977828;28;20476;-76
2023/09/28 08:22:13;;;;;;;17.53;5.70;;;23.20;70.90;;;;;;4985643;28;20446;-74
2023/09/28 08:24:43;;;;;;;13.70;4.83;;;23.30;69.20;;;;;;4985740;28;20525;-75
2023/09/28 08:27:11;;;;;;;11.97;5.57;;;23.00;69.90;;;;;;4993399;28;20551;-76
2023/09/28 08:29:39;;;;;;;12.40;5.60;;;23.10;69.80;;;;;;4993170;28;21001;-76
2023/09/28 08:32:08;;;;;;;13.23;5.07;;;23.50;70.80;;;;;;4993474;28;20420;-75
2023/09/28 08:34:37;;;;;;;11.00;5.00;;;23.20;69.20;;;;;;4993245;28;20452;-77
2023/09/28 08:37:06;;;;;;;13.40;5.33;;;23.40;69.10;;;;;;4990642;28;20428;-76
2023/09/28 08:39:36;;;;;;;12.83;4.60;;;23.90;68.60;;;;;;4993312;28;20465;-77
2023/09/28 08:42:04;;;;;;;19.00;5.17;;;24.20;66.70;;;;;;4993517;28;20449;-76
2023/09/28 08:44:32;;;;;;;14.20;4.47;;;24.00;66.50;;;;;;4993562;28;20532;-77
2023/09/28 08:47:01;;;;;;;22.50;5.47;;;23.80;66.90;;;;;;4993183;28;20496;-75
2023/09/28 08:49:31;;;;;;;27.10;5.27;;;23.90;66.10;;;;;;4993489;28;20439;-76
2023/09/28 08:52:00;;;;;;;12.80;4.70;;;23.80;66.70;;;;;;4992797;28;20454;-75
2023/09/28 08:54:28;;;;;;;17.70;4.93;;;23.50;67.70;;;;;;4992733;28;20548;-76
2023/09/28 08:56:57;;;;;;;19.13;4.83;;;23.50;68.20;;;;;;4992623;28;20431;-76
2023/09/28 08:59:28;;;;;;;18.73;5.03;;;23.80;66.90;;;;;;4992919;28;20474;-76
2023/09/28 09:01:57;;;;;;;17.00;4.77;;;23.90;66.60;;;;;;4992995;28;20496;-76
2023/09/28 09:04:25;;;;;;;17.37;4.23;;;23.90;66.80;;;;;;4993207;28;20445;-76
2023/09/28 09:06:54;;;;;;;22.17;5.20;;;23.60;67.60;;;;;;4993002;28;20445;-76
2023/09/28 09:09:24;;;;;;;16.83;4.70;;;23.70;67.30;;;;;;4993092;28;20428;-77
2023/09/28 09:11:53;;;;;;;22.30;4.60;;;23.80;66.90;;;;;;4993308;28;20454;-77
2023/09/28 09:14:21;;;;;;;14.43;4.60;;;23.90;65.90;;;;;;4993203;28;20474;-77
2023/09/28 09:16:50;;;;;;;19.17;4.90;;;24.10;66.00;;;;;;4992554;28;20915;-77
2023/09/28 09:19:18;;;;;;;19.23;4.93;;;24.00;65.10;;;;;;4992672;28;20511;-78
2023/09/28 09:21:46;;;;;;;16.70;4.20;;;23.70;65.30;;;;;;4992993;28;20577;-77
2023/09/28 09:24:18;;;;;;;20.07;4.60;;;23.70;66.50;;;;;;4992465;28;20416;-76
2023/09/28 09:26:51;;;;;;;20.00;4.60;;;23.60;65.90;;;;;;4984282;28;20449;-77
2023/09/28 09:29:19;;;;;;;15.63;4.43;;;23.90;65.00;;;;;;4992398;28;20419;-76
2023/09/28 09:31:48;;;;;;;24.10;4.87;;;23.70;65.60;;;;;;4984263;28;20424;-77
2023/09/28 09:34:18;;;;;;;23.30;4.77;;;23.60;64.90;;;;;;4994104;28;20416;-78
2023/09/28 09:36:52;;;;;;;18.33;4.20;;;23.50;65.20;;;;;;4985580;28;20474;-78
2023/09/28 09:39:24;;;;;;;19.37;4.50;;;23.50;66.00;;;;;;4992948;28;20424;-80
2023/09/28 09:41:55;;;;;;;23.60;5.20;;;23.50;65.20;;;;;;4977238;28;20429;-79
2023/09/28 09:44:24;;;;;;;20.03;4.00;;;23.70;65.90;;;;;;4974595;28;20537;-76
2023/09/28 09:46:54;;;;;;;16.83;4.57;;;24.10;65.00;;;;;;4985433;28;20449;-77
2023/09/28 09:49:24;;;;;;;21.63;5.27;;;24.30;65.10;;;;;;4992526;28;20846;-76
2023/09/28 09:51:52;;;;;;;18.83;5.00;;;24.70;64.20;;;;;;4980741;28;20511;-74
2023/09/28 09:54:21;;;;;;;19.20;5.63;;;25.10;60.70;;;;;;4989630;28;20482;-75
2023/09/28 09:56:49;;;;;;;20.20;5.03;;;25.00;62.00;;;;;;4996984;28;20428;-78
2023/09/28 09:59:22;;;;;;;17.73;5.17;;;24.80;61.70;;;;;;4996847;28;20420;-77
2023/09/28 10:01:52;;;;;;;13.10;4.50;;;25.00;62.80;;;;;;4996835;28;20460;-77
2023/09/28 10:04:22;;;;;;;18.87;4.60;;;25.00;63.40;;;;;;5002629;28;20420;-77
2023/09/28 10:06:52;;;;;;;20.03;4.10;;;26.30;61.70;;;;;;4988438;28;20478;-77
2023/09/28 10:09:21;;;;;;;14.30;4.30;;;27.30;58.60;;;;;;5001678;28;20472;-79
2023/09/28 10:11:50;;;;;;;11.13;5.10;;;28.10;56.50;;;;;;5004647;28;20449;-78
2023/09/28 10:14:21;;;;;;;12.87;5.00;;;28.70;55.20;;;;;;4998374;28;20470;-78
2023/09/28 10:16:50;;;;;;;22.30;4.90;;;29.10;53.60;;;;;;4996376;28;20460;-77
2023/09/28 10:19:20;;;;;;;11.43;4.10;;;29.60;52.80;;;;;;4999157;28;20488;-79
2023/09/28 10:21:48;;;;;;;12.37;4.87;;;29.90;51.70;;;;;;4997765;28;20465;-77
2023/09/28 10:24:17;;;;;;;9.47;4.13;;;30.20;50.70;;;;;;4996685;28;20449;-77
2023/09/28 10:26:48;;;;;;;10.03;3.67;;;30.40;50.10;;;;;;4996326;28;20463;-78
2023/09/28 10:29:23;;;;;;;12.40;3.90;;;30.70;49.40;;;;;;4988977;28;20479;-77
2023/09/28 10:31:53;;;;;;;12.63;4.17;;;30.90;49.20;;;;;;4996120;28;20441;-77
2023/09/28 10:34:27;;;;;;;9.27;3.83;;;31.10;48.50;;;;;;4996682;28;20463;-76
2023/09/28 10:37:21;;;;;;;14.57;4.27;;;31.20;48.00;;;;;;4977967;28;20453;-79
2023/09/28 10:39:51;;;;;;;14.57;3.37;;;31.30;47.30;;;;;;4967847;28;20462;-76
2023/09/28 10:42:19;;;;;;;9.30;3.50;;;31.40;47.20;;;;;;4979578;28;20416;-79
2023/09/28 10:44:51;;;;;;;9.57;4.00;;;31.50;47.00;;;;;;4997368;28;20449;-78
2023/09/28 10:47:21;;;;;;;6.83;3.10;;;31.60;46.80;;;;;;4994099;28;20473;-79
2023/09/28 10:50:00;;;;;;;7.23;3.17;;;31.80;46.40;;;;;;4984839;28;20496;-77
2023/09/28 10:52:43;;;;;;;9.90;3.80;;;31.70;46.00;;;;;;5001707;28;20437;-79
2023/09/28 10:55:12;;;;;;;7.87;3.37;;;31.80;45.90;;;;;;4983591;28;20546;-79
2023/09/28 10:57:40;;;;;;;15.83;4.00;;;32.00;45.70;;;;;;4991838;28;20445;-80
2023/09/28 11:00:12;;;;;;;15.60;4.00;;;32.20;45.20;;;;;;4994907;28;20470;-80
2023/09/28 11:02:41;;;;;;;8.03;4.10;;;32.30;44.80;;;;;;4993322;28;20465;-79
2023/09/28 11:05:10;;;;;;;12.53;3.83;;;32.60;44.70;;;;;;4997243;28;20447;-78
2023/09/28 11:07:40;;;;;;;9.90;3.80;;;33.30;43.70;;;;;;4989233;28;20445;-76
2023/09/28 11:10:09;;;;;;;9.57;3.70;;;34.00;42.40;;;;;;4992995;28;20470;-79
2023/09/28 11:12:38;;;;;;;12.27;4.00;;;34.70;41.50;;;;;;4977200;28;20500;-79
2023/09/28 11:15:09;;;;;;;9.77;3.40;;;35.40;40.00;;;;;;4983216;28;20446;-77
2023/09/28 11:17:40;;;;;;;9.60;3.10;;;36.10;39.10;;;;;;4986901;28;20560;-80
2023/09/28 11:20:11;;;;;;;5.13;3.50;;;36.70;37.90;;;;;;4991121;28;20549;-80
2023/09/28 11:22:39;;;;;;;10.90;3.23;;;37.20;36.70;;;;;;4976398;28;20538;-79
2023/09/28 11:25:09;;;;;;;9.67;3.13;;;37.80;35.90;;;;;;4986959;28;20445;-79
2023/09/28 11:27:37;;;;;;;8.97;3.50;;;38.20;35.20;;;;;;5000201;28;20453;-79
2023/09/28 11:30:07;;;;;;;7.60;3.50;;;37.90;35.30;;;;;;4992804;28;20476;-76
2023/09/28 11:32:50;;;;;;;3.30;3.00;;;38.40;35.40;;;;;;4991928;28;20544;-75
2023/09/28 11:35:24;;;;;;;6.07;3.20;;;38.80;35.00;;;;;;4993745;28;20499;-78
2023/09/28 11:37:53;;;;;;;11.53;3.50;;;39.30;34.10;;;;;;4994723;28;20456;-75
2023/09/28 11:40:21;;;;;;;8.27;3.23;;;39.70;33.50;;;;;;4997395;28;20476;-81
2023/09/28 11:42:49;;;;;;;7.10;3.30;;;40.10;32.90;;;;;;4997756;28;20468;-76
2023/09/28 11:45:18;;;;;;;4.83;2.73;;;40.00;30.80;;;;;;4994799;28;20452;-77
2023/09/28 11:47:51;;;;;;;9.40;3.97;;;39.40;31.60;;;;;;4984837;28;20484;-78
2023/09/28 11:50:19;;;;;;;7.30;3.60;;;38.20;32.40;;;;;;4976209;28;20486;-82
2023/09/28 11:52:48;;;;;;;10.27;3.80;;;38.50;32.40;;;;;;4990293;28;20532;-77
2023/09/28 11:55:17;;;;;;;10.57;3.50;;;37.90;33.20;;;;;;5004452;28;21010;-78
2023/09/28 11:57:45;;;;;;;8.40;3.90;;;37.60;33.70;;;;;;4987737;28;20459;-79
2023/09/28 12:00:18;;;;;;;11.83;3.67;;;38.80;32.20;;;;;;4984959;28;20485;-81
2023/09/28 12:02:47;;;;;;;7.37;3.30;;;38.50;31.40;;;;;;4980054;28;20493;-80
2023/09/28 12:05:17;;;;;;;6.90;3.00;;;37.70;32.80;;;;;;4980576;28;20526;-80
2023/09/28 12:07:45;;;;;;;7.47;3.20;;;38.40;33.00;;;;;;4985029;28;20521;-79
2023/09/28 12:10:14;;;;;;;12.93;3.47;;;38.20;33.80;;;;;;4999194;28;20495;-80
2023/09/28 12:12:49;;;;;;;6.67;2.80;;;39.00;31.60;;;;;;4997647;28;20437;-79
2023/09/28 12:15:22;;;;;;;7.30;2.93;;;38.90;32.60;;;;;;4987908;28;20484;-79
2023/09/28 12:21:16;;;;;;;4.83;3.30;;;38.00;30.50;;;;;;4984288;28;20473;-79
2023/09/28 12:23:47;;;;;;;8.43;3.00;;;38.40;31.60;;;;;;4992070;28;20454;-79
2023/09/28 12:26:15;;;;;;;5.20;2.87;;;38.90;31.20;;;;;;4992343;28;20452;-79
2023/09/28 12:28:47;;;;;;;6.10;2.90;;;39.50;31.70;;;;;;5000614;28;20453;-79
2023/09/28 12:31:15;;;;;;;9.07;3.13;;;40.00;30.40;;;;;;4987380;28;20515;-78
2023/09/28 12:33:44;;;;;;;10.30;3.50;;;38.90;30.80;;;;;;4992972;28;20445;-80
2023/09/28 12:36:18;;;;;;;7.10;3.23;;;38.90;32.50;;;;;;4993949;28;20452;-78
2023/09/28 12:38:50;;;;;;;7.50;2.80;;;39.70;29.40;;;;;;4985054;28;20456;-77
2023/09/28 12:41:26;;;;;;;7.97;3.20;;;39.40;31.60;;;;;;4991238;28;20548;-78
2023/09/28 12:43:55;;;;;;;8.47;3.23;;;37.30;31.20;;;;;;4983667;28;20480;-77
2023/09/28 12:46:23;;;;;;;10.70;3.60;;;37.50;32.70;;;;;;4993466;28;20540;-76
2023/09/28 12:48:52;;;;;;;10.53;3.50;;;38.10;32.10;;;;;;4983899;28;20445;-76
2023/09/28 12:51:22;;;;;;;7.80;3.50;;;36.30;32.60;;;;;;4986662;28;20477;-76
2023/09/28 12:53:52;;;;;;;8.57;3.30;;;34.90;34.80;;;;;;4993164;28;20535;-79
2023/09/28 12:56:21;;;;;;;8.50;3.10;;;35.00;36.10;;;;;;4988149;28;20510;-81
2023/09/28 12:58:54;;;;;;;9.07;2.97;;;36.20;35.50;;;;;;4986866;28;20449;-79
2023/09/28 13:01:30;;;;;;;8.60;3.40;;;37.70;33.10;;;;;;4994561;28;20533;-79